Mount Horeb, WI (53572)

2:10 PM CDT on August 29, 2015 (GMT -0500)
Maple Dr. | | Change Station
CLOSE
Current Station
Personal Weather Station
Location: MT HOREB, WI
Elevation: 1181 ft
Nearby Weather Stations

Elev 1181 ft 43.00 °N, 89.74 °W | Updated 21 seconds ago

Overcast
Overcast
68.2 °F
Feels Like 68.2 °F
N
3.2
Wind Variable Wind from East
Gusts 3.8 mph

Today
High -- | Low -- °F
--% Chance of Precip.
Yesterday
High -- | Low -- °F
Precip. -- in
6:19 AM 7:39 PM
Full, 100% visible
Pressure 30.04 in
Visibility 10.0 miles
Clouds Scattered Clouds 700 ft
Overcast 1500 ft
Dew Point 65 °F
Humidity 89%
Rainfall 1.06 in
Snow Depth Not available.
UV 0.0 out of 12
Pollen 4.60 out of 12
Air Quality Not available.
Flu Activity Not available.
METAR KC29 291855Z AUTO 00000KT 10SM SCT007 OVC015 20/19 A3004 RMK AO1 T01990185
Pressure 30.04 in
Visibility 10.0 miles
Clouds Scattered Clouds 700 ft
Overcast 1500 ft
Dew Point 65 °F
Humidity 89%
Rainfall 1.06 in
Snow Depth Not available.
UV 0.0 out of 12
Pollen 4.60 out of 12
Air Quality Not available.
Flu Activity Not available.
METAR KC29 291855Z AUTO 00000KT 10SM SCT007 OVC015 20/19 A3004 RMK AO1 T01990185

10-Day Weather Forecast

×

Almanac

Astronomy

Aug. 29, 2015 Rise Set
Actual Time
Civil Twilight
Nautical Twilight
Astronomical Twilight
Moon
Length of Visible Light
Length of Day
Tomorrow will be .
, % of the Moon is Illuminated

Today's Extremes

State Highs State Lows

Community

WunderPhotos

Upload Photos

1,850,778 photos uploaded!

WunderBlogs® & News

Nearby

Air Quality

  Air Quality AQ Index Pollutant
Not available.

Snow Depth

Station Depth Elevation

Earthquake Activity

City Distance Mag. Time & Date
Minimum magnitude displayed is 2.5.

Coastal Water Temperatures

Place Temperature

Stations

Nearby Weather Stations

Station Location Temp. Windchill Dew Point Humidity Wind Precip. Elev Updated Type